x

Halibut Bank (46146) Wave Buoy

11:00 - Wed 28th Jan 2015 All times are PST. -8 hours from GMT.

  • Sig Wave height 0.3ft
  • Peak Period 2s
  • Wind
    11mph, 13mph gusts
  • Sea Temp 46°f
  • Aire Temp 45°f
  • Sea Pressure 1029.7mb
  • Halibut Bank
  • Halibut Bank

More Historic Weather Station data

Upgrade to MSW Pro to gain access to the past 30 days of data for over 8000 Wavebouys and Weather Stations around the globe.

Join Pro

Comparision Forecast

View Surf forecast
   
mié 01/28 11:00 0.3ft 2s 11 13 mph 1029.7mb 46f 45f
10:00 0.3ft 2s 9 11 mph 1029.6mb 46f 45f
9:00 0.3ft 4s 7 9 mph 1029.6mb 45f 45f
8:00 0.3ft 7s 4
mph
1029.5mb 45f 45f
7:00 0.3ft 3s 2
mph
1029.4mb 46f 46f
6:00 0.3ft 6s 2
mph
1029.3mb 46f 46f
5:00 0.3ft 4s 2
mph
1029.1mb 46f 46f
4:00 0.3ft 6s 4
mph
1029.1mb 46f 46f
3:00 0.3ft 3s 2
mph
1029.2mb 47f 47f
2:00 0.3ft 4s  -  mph 1029.3mb 47f 50f
1:00 0.3ft 3s  -  mph 1029.5mb 46f 47f
12:00 0.3ft 6s 4
mph
1029.8mb 46f 46f
11:00 0.3ft 2s 4 7 mph 1030.1mb 46f 45f
10:00 0.3ft 6s 2
mph
1029.9mb 46f 46f
9:00 0.3ft 3s 2 4 mph 1029.4mb 46f 45f
8:00 0.3ft 7s 2
mph
1029.1mb 46f 45f
7:00 0.3ft 7s 2 4 mph 1028.5mb 46f 46f
6:00 0.3ft 3s  -  mph 1028.2mb 46f 46f
5:00 0.3ft 3s 2
mph
1027.7mb 46f 46f
4:00 0.7ft 3s 4 7 mph 1027.2mb 46f 46f
3:00 0.7ft 3s 7
mph
1026.7mb 46f 46f
2:00 0.7ft 3s 2 4 mph 1026.2mb 46f 46f
1:00 0.7ft 3s 11
mph
1025.2mb 46f 47f
12:00 0.7ft 2s 7 9 mph 1025.1mb 46f 47f
mar 01/27 11:00 0.7ft 2s 4 7 mph 1024.5mb 46f 47f
10:00 0.7ft 3s 11 13 mph 1023.6mb 46f 47f
9:00 0.7ft 2s 11 13 mph 1023mb 46f 47f
8:00 0.7ft 3s 9 11 mph 1022.2mb 46f 47f
7:00 0.7ft 3s 9
mph
1021.5mb 46f 47f
6:00 0.3ft 3s 9 11 mph 1021.1mb 46f 47f
5:00 0.7ft 4s 7 9 mph 1020.5mb 46f 47f
4:00 0.7ft 2s 7 9 mph 1019.7mb 46f 47f
3:00 0.3ft 2s 4 7 mph 1019.4mb 46f 47f
2:00 0.7ft 3s 9
mph
1018.7mb 46f 46f
1:00 0.7ft 3s 4
mph
1018.3mb 46f 48f
12:00 1ft 3s 9 11 mph 1017.9mb 46f 48f
11:00 0.7ft 3s 11 13 mph 1017.4mb 46f 48f
10:00 0.7ft 2s 11
mph
1016.9mb 46f 47f
9:00 0.7ft 2s 13 18 mph 1015.9mb 46f 48f
8:00 0.7ft 2s 11 13 mph 1015.7mb 46f 47f
7:00 0.7ft 3s 11 13 mph 1015.3mb 46f 47f
6:00 0.7ft 2s 11 13 mph 1014.8mb 46f 47f
5:00 0.7ft 2s 13 16 mph 1014.9mb 46f 46f
4:00 0.7ft 3s 13 18 mph 1014.8mb 46f 46f
3:00 1ft 3s 11 13 mph 1014.4mb 46f 48f
2:00 1.3ft 3s 11
mph
1014.5mb 46f 47f
1:00 1.3ft 3s 11 13 mph 1014.6mb 46f 46f
12:00 1.3ft 3s 16 18 mph 1014.3mb 46f 46f
lun 01/26 11:00 1ft 2s 20 22 mph 1013.5mb 46f 45f
10:00 0.7ft 2s 13 16 mph 1013.3mb 46f 47f
9:00 0.3ft 3s 16 18 mph 1013.1mb 46f 46f
8:00 0.3ft 2s 9
mph
1012.6mb 46f 46f
7:00 0.7ft 3s 4 7 mph 1012.7mb 46f 46f
6:00 0.3ft 2s 4
mph
1012.6mb 46f 47f
5:00 0.7ft 6s 7 9 mph 1012.8mb 46f 46f
4:00 1ft 3s 9
mph
1012.4mb 46f 46f
3:00 1ft 3s 7 9 mph 1012.2mb 46f 46f
2:00 1ft 3s 11 13 mph 1012.1mb 46f 45f
1:00 1ft 3s 13 16 mph 1012.1mb 46f 44f
12:00 1ft 2s 18 20 mph 1012.4mb 46f 44f
11:00 0.3ft 2s 18 20 mph 1013.2mb 46f 44f
10:00 0.3ft 4s 11 13 mph 1013.7mb 46f 45f
9:00 0.3ft 2s 4 7 mph 1013.8mb 46f 46f
8:00 0.3ft 6s 2 7 mph 1012.5mb 46f 46f
7:00 0.3ft 2s 4 7 mph 1012.9mb 46f 47f
6:00 0.3ft 2s 7 9 mph 1012.8mb 46f 47f
5:00 0.3ft 2s 9 11 mph 1013.2mb 46f 46f
4:00 0.3ft 2s 11 13 mph 1013.5mb 46f 46f
3:00 0.3ft 4s 4 7 mph 1014.2mb 46f 46f
2:00 0.3ft 7s 4
mph
1014.9mb 45f 47f
1:00 0.3ft 2s 4 7 mph 1015.1mb 45f 47f
12:00 0.3ft 3s  -  mph 1015.6mb 45f 49f
dom 01/25 11:00 0.3ft 3s 2 4 mph 1016.1mb 45f 49f
10:00 0.3ft 4s 4
mph
1016.5mb 46f 49f
9:00 0.3ft 3s 2
mph
1016.9mb 46f 51f
8:00 0.3ft 5s 2 4 mph 1017.4mb 46f 50f
7:00 0.3ft 4s 7
mph
1017.9mb 46f 49f
6:00 0.3ft 4s 7
mph
1018.7mb 46f 49f
5:00 0.3ft 7s 4
mph
1018.7mb 46f 49f
4:00 0.3ft 2s 4 7 mph 1018.9mb 46f 49f
3:00 0.3ft 2s 9 11 mph 1019.4mb 46f 50f
2:00 0.7ft 2s 9 11 mph 1020.1mb 46f 50f
1:00 0.7ft 3s 9 11 mph 1020.4mb 46f 50f
12:00 1ft 3s 13 18 mph 1020.9mb 46f 51f
11:00 1ft 3s 13
mph
1021.4mb 46f 50f
10:00 1ft 3s 13 16 mph 1021.1mb 46f 50f
9:00 1ft 3s 16 18 mph 1020.7mb 46f 49f